sensor_id;sensor_type;location;lat;lon;timestamp;pressure;altitude;pressure_sealevel;temperature;humidity
48553;BME280;34335;51.566;6.994;2023-03-15T00:01:47;100558.56;;;1.22;100.00
48553;BME280;34335;51.566;6.994;2023-03-15T00:04:13;100563.81;;;1.26;100.00
48553;BME280;34335;51.566;6.994;2023-03-15T00:06:38;100563.63;;;1.19;100.00
48553;BME280;34335;51.566;6.994;2023-03-15T00:09:03;100565.69;;;1.30;100.00
48553;BME280;34335;51.566;6.994;2023-03-15T00:11:29;100572.75;;;1.37;100.00
48553;BME280;34335;51.566;6.994;2023-03-15T00:13:58;100573.84;;;1.44;100.00
48553;BME280;34335;51.566;6.994;2023-03-15T00:16:24;100570.38;;;1.17;100.00
48553;BME280;34335;51.566;6.994;2023-03-15T00:18:52;100572.19;;;1.21;100.00
48553;BME280;34335;51.566;6.994;2023-03-15T00:21:17;100577.56;;;1.28;100.00
48553;BME280;34335;51.566;6.994;2023-03-15T00:23:42;100587.69;;;1.24;100.00
48553;BME280;34335;51.566;6.994;2023-03-15T00:26:07;100588.19;;;1.14;100.00
48553;BME280;34335;51.566;6.994;2023-03-15T00:28:33;100589.16;;;1.18;100.00
48553;BME280;34335;51.566;6.994;2023-03-15T00:31:03;100585.78;;;1.19;100.00
48553;BME280;34335;51.566;6.994;2023-03-15T00:33:29;100592.31;;;1.11;100.00
48553;BME280;34335;51.566;6.994;2023-03-15T00:36:00;100592.63;;;1.18;100.00
48553;BME280;34335;51.566;6.994;2023-03-15T00:38:26;100588.03;;;1.09;100.00
48553;BME280;34335;51.566;6.994;2023-03-15T00:40:51;100586.75;;;1.22;100.00
48553;BME280;34335;51.566;6.994;2023-03-15T00:43:17;100591.19;;;1.27;100.00
48553;BME280;34335;51.566;6.994;2023-03-15T00:45:42;100600.00;;;1.35;100.00
48553;BME280;34335;51.566;6.994;2023-03-15T00:48:09;100592.16;;;1.30;100.00
48553;BME280;34335;51.566;6.994;2023-03-15T00:50:34;100597.28;;;1.30;100.00
48553;BME280;34335;51.566;6.994;2023-03-15T00:53:00;100604.03;;;1.28;100.00
48553;BME280;34335;51.566;6.994;2023-03-15T00:55:25;100606.69;;;1.30;100.00
48553;BME280;34335;51.566;6.994;2023-03-15T00:57:51;100603.25;;;1.31;100.00
48553;BME280;34335;51.566;6.994;2023-03-15T01:00:20;100603.22;;;1.29;100.00
48553;BME280;34335;51.566;6.994;2023-03-15T01:02:51;100609.06;;;1.25;100.00
48553;BME280;34335;51.566;6.994;2023-03-15T01:05:17;100610.06;;;1.29;100.00
48553;BME280;34335;51.566;6.994;2023-03-15T01:07:42;100605.66;;;1.26;100.00
48553;BME280;34335;51.566;6.994;2023-03-15T01:10:11;100615.19;;;1.29;100.00
48553;BME280;34335;51.566;6.994;2023-03-15T01:12:36;100609.25;;;1.30;100.00
48553;BME280;34335;51.566;6.994;2023-03-15T01:15:04;100604.97;;;1.30;100.00
48553;BME280;34335;51.566;6.994;2023-03-15T01:17:31;100608.34;;;1.29;100.00
48553;BME280;34335;51.566;6.994;2023-03-15T01:19:57;100609.06;;;1.25;100.00
48553;BME280;34335;51.566;6.994;2023-03-15T01:22:23;100600.34;;;1.20;100.00
48553;BME280;34335;51.566;6.994;2023-03-15T01:24:48;100597.78;;;1.20;100.00
48553;BME280;34335;51.566;6.994;2023-03-15T01:27:14;100600.47;;;1.23;100.00
48553;BME280;34335;51.566;6.994;2023-03-15T01:29:39;100599.53;;;1.21;100.00
48553;BME280;34335;51.566;6.994;2023-03-15T01:32:04;100613.97;;;1.19;100.00
48553;BME280;34335;51.566;6.994;2023-03-15T01:34:30;100608.72;;;1.16;100.00
48553;BME280;34335;51.566;6.994;2023-03-15T01:36:55;100611.25;;;1.14;100.00
48553;BME280;34335;51.566;6.994;2023-03-15T01:39:21;100615.38;;;1.11;100.00
48553;BME280;34335;51.566;6.994;2023-03-15T01:41:46;100620.56;;;1.12;100.00
48553;BME280;34335;51.566;6.994;2023-03-15T01:44:16;100630.59;;;1.06;100.00
48553;BME280;34335;51.566;6.994;2023-03-15T01:46:42;100627.25;;;1.08;100.00
48553;BME280;34335;51.566;6.994;2023-03-15T01:49:18;100633.16;;;1.06;100.00
48553;BME280;34335;51.566;6.994;2023-03-15T01:51:59;100640.06;;;1.08;100.00
48553;BME280;34335;51.566;6.994;2023-03-15T01:54:30;100643.38;;;1.06;100.00
48553;BME280;34335;51.566;6.994;2023-03-15T01:57:07;100640.13;;;1.10;100.00
48553;BME280;34335;51.566;6.994;2023-03-15T01:59:40;100645.47;;;1.16;100.00
48553;BME280;34335;51.566;6.994;2023-03-15T02:02:08;100646.25;;;1.14;100.00
48553;BME280;34335;51.566;6.994;2023-03-15T02:04:38;100654.66;;;1.11;100.00
48553;BME280;34335;51.566;6.994;2023-03-15T02:07:05;100653.47;;;1.01;100.00
48553;BME280;34335;51.566;6.994;2023-03-15T02:09:41;100660.63;;;1.10;100.00
48553;BME280;34335;51.566;6.994;2023-03-15T02:12:09;100661.38;;;1.07;100.00
48553;BME280;34335;51.566;6.994;2023-03-15T02:14:35;100655.50;;;1.10;100.00
48553;BME280;34335;51.566;6.994;2023-03-15T02:17:01;100663.13;;;1.08;100.00
48553;BME280;34335;51.566;6.994;2023-03-15T02:19:39;100656.31;;;1.09;100.00
48553;BME280;34335;51.566;6.994;2023-03-15T02:22:21;100658.06;;;1.10;100.00
48553;BME280;34335;51.566;6.994;2023-03-15T02:24:55;100659.75;;;1.09;100.00
48553;BME280;34335;51.566;6.994;2023-03-15T02:27:31;100659.63;;;1.06;100.00
48553;BME280;34335;51.566;6.994;2023-03-15T02:29:59;100658.00;;;1.08;100.00
48553;BME280;34335;51.566;6.994;2023-03-15T02:32:28;100653.97;;;1.15;100.00
48553;BME280;34335;51.566;6.994;2023-03-15T02:34:53;100663.13;;;1.08;100.00
48553;BME280;34335;51.566;6.994;2023-03-15T02:37:19;100663.38;;;1.15;100.00
48553;BME280;34335;51.566;6.994;2023-03-15T02:39:45;100670.75;;;1.07;100.00
48553;BME280;34335;51.566;6.994;2023-03-15T02:42:11;100668.16;;;1.05;100.00
48553;BME280;34335;51.566;6.994;2023-03-15T02:44:38;100663.19;;;1.10;100.00
48553;BME280;34335;51.566;6.994;2023-03-15T02:47:18;100658.97;;;1.12;100.00
48553;BME280;34335;51.566;6.994;2023-03-15T02:49:49;100668.34;;;1.12;100.00
48553;BME280;34335;51.566;6.994;2023-03-15T02:52:15;100672.66;;;1.13;100.00
48553;BME280;34335;51.566;6.994;2023-03-15T02:54:40;100673.47;;;1.12;100.00
48553;BME280;34335;51.566;6.994;2023-03-15T02:57:08;100686.34;;;1.13;100.00
48553;BME280;34335;51.566;6.994;2023-03-15T02:59:35;100682.97;;;1.14;100.00
48553;BME280;34335;51.566;6.994;2023-03-15T03:02:01;100690.88;;;1.20;100.00
48553;BME280;34335;51.566;6.994;2023-03-15T03:04:27;100681.38;;;1.18;100.00
48553;BME280;34335;51.566;6.994;2023-03-15T03:06:52;100688.81;;;1.10;100.00
48553;BME280;34335;51.566;6.994;2023-03-15T03:09:17;100693.97;;;1.12;100.00
48553;BME280;34335;51.566;6.994;2023-03-15T03:11:43;100699.88;;;1.09;100.00
48553;BME280;34335;51.566;6.994;2023-03-15T03:14:08;100703.34;;;1.11;100.00
48553;BME280;34335;51.566;6.994;2023-03-15T03:16:34;100710.66;;;1.24;100.00
48553;BME280;34335;51.566;6.994;2023-03-15T03:18:59;100724.16;;;1.20;100.00
48553;BME280;34335;51.566;6.994;2023-03-15T03:21:24;100724.28;;;1.23;100.00
48553;BME280;34335;51.566;6.994;2023-03-15T03:23:50;100725.69;;;1.15;100.00
48553;BME280;34335;51.566;6.994;2023-03-15T03:26:17;100727.44;;;1.16;100.00
48553;BME280;34335;51.566;6.994;2023-03-15T03:28:44;100734.19;;;1.14;100.00
48553;BME280;34335;51.566;6.994;2023-03-15T03:31:18;100738.81;;;1.23;100.00
48553;BME280;34335;51.566;6.994;2023-03-15T03:33:45;100743.00;;;1.21;100.00
48553;BME280;34335;51.566;6.994;2023-03-15T03:36:10;100754.91;;;1.20;100.00
48553;BME280;34335;51.566;6.994;2023-03-15T03:38:40;100750.72;;;1.22;100.00
48553;BME280;34335;51.566;6.994;2023-03-15T03:41:06;100751.66;;;1.24;100.00
48553;BME280;34335;51.566;6.994;2023-03-15T03:43:32;100758.38;;;1.21;100.00
48553;BME280;34335;51.566;6.994;2023-03-15T03:45:57;100760.94;;;1.21;100.00
48553;BME280;34335;51.566;6.994;2023-03-15T03:48:23;100767.00;;;1.23;100.00
48553;BME280;34335;51.566;6.994;2023-03-15T03:50:48;100771.41;;;1.27;100.00
48553;BME280;34335;51.566;6.994;2023-03-15T03:53:13;100772.28;;;1.28;100.00
48553;BME280;34335;51.566;6.994;2023-03-15T03:55:38;100779.09;;;1.27;100.00
48553;BME280;34335;51.566;6.994;2023-03-15T03:58:04;100777.16;;;1.21;100.00
48553;BME280;34335;51.566;6.994;2023-03-15T04:00:29;100780.47;;;1.19;100.00
48553;BME280;34335;51.566;6.994;2023-03-15T04:02:54;100783.00;;;1.17;100.00
48553;BME280;34335;51.566;6.994;2023-03-15T04:05:20;100782.06;;;1.15;100.00
48553;BME280;34335;51.566;6.994;2023-03-15T04:07:45;100786.31;;;1.15;100.00
48553;BME280;34335;51.566;6.994;2023-03-15T04:10:11;100789.06;;;1.19;100.00
48553;BME280;34335;51.566;6.994;2023-03-15T04:12:42;100792.00;;;1.07;100.00
48553;BME280;34335;51.566;6.994;2023-03-15T04:15:08;100791.00;;;1.04;100.00
48553;BME280;34335;51.566;6.994;2023-03-15T04:17:35;100790.19;;;1.05;100.00
48553;BME280;34335;51.566;6.994;2023-03-15T04:20:01;100791.13;;;1.07;100.00
48553;BME280;34335;51.566;6.994;2023-03-15T04:22:28;100801.56;;;1.12;100.00
48553;BME280;34335;51.566;6.994;2023-03-15T04:24:54;100799.81;;;1.11;100.00
48553;BME280;34335;51.566;6.994;2023-03-15T04:27:19;100797.94;;;1.06;100.00
48553;BME280;34335;51.566;6.994;2023-03-15T04:29:44;100799.59;;;1.04;100.00
48553;BME280;34335;51.566;6.994;2023-03-15T04:32:10;100800.56;;;1.08;100.00
48553;BME280;34335;51.566;6.994;2023-03-15T04:34:35;100802.00;;;1.01;100.00
48553;BME280;34335;51.566;6.994;2023-03-15T04:37:03;100807.94;;;1.00;100.00
48553;BME280;34335;51.566;6.994;2023-03-15T04:39:29;100814.81;;;1.01;100.00
48553;BME280;34335;51.566;6.994;2023-03-15T04:41:54;100813.97;;;1.01;100.00
48553;BME280;34335;51.566;6.994;2023-03-15T04:44:20;100816.22;;;0.93;100.00
48553;BME280;34335;51.566;6.994;2023-03-15T04:46:45;100813.47;;;0.88;100.00
48553;BME280;34335;51.566;6.994;2023-03-15T04:49:11;100809.28;;;0.90;100.00
48553;BME280;34335;51.566;6.994;2023-03-15T04:51:36;100806.72;;;0.90;100.00
48553;BME280;34335;51.566;6.994;2023-03-15T04:54:02;100804.47;;;0.77;100.00
48553;BME280;34335;51.566;6.994;2023-03-15T04:56:28;100817.44;;;0.82;100.00
48553;BME280;34335;51.566;6.994;2023-03-15T04:58:54;100818.59;;;0.67;100.00
48553;BME280;34335;51.566;6.994;2023-03-15T05:01:21;100826.09;;;0.63;100.00
48553;BME280;34335;51.566;6.994;2023-03-15T05:03:49;100819.13;;;0.60;100.00
48553;BME280;34335;51.566;6.994;2023-03-15T05:06:14;100831.94;;;0.60;100.00
48553;BME280;34335;51.566;6.994;2023-03-15T05:08:39;100829.88;;;0.51;100.00
48553;BME280;34335;51.566;6.994;2023-03-15T05:11:05;100833.16;;;0.49;100.00
48553;BME280;34335;51.566;6.994;2023-03-15T05:13:31;100835.19;;;0.56;100.00
48553;BME280;34335;51.566;6.994;2023-03-15T05:15:56;100837.00;;;0.58;100.00
48553;BME280;34335;51.566;6.994;2023-03-15T05:18:21;100840.16;;;0.53;100.00
48553;BME280;34335;51.566;6.994;2023-03-15T05:20:47;100852.09;;;0.52;100.00
48553;BME280;34335;51.566;6.994;2023-03-15T05:23:13;100850.34;;;0.51;100.00
48553;BME280;34335;51.566;6.994;2023-03-15T05:25:38;100854.00;;;0.58;100.00
48553;BME280;34335;51.566;6.994;2023-03-15T05:28:04;100861.78;;;0.59;100.00
48553;BME280;34335;51.566;6.994;2023-03-15T05:30:30;100871.06;;;0.57;100.00
48553;BME280;34335;51.566;6.994;2023-03-15T05:32:55;100875.38;;;0.58;100.00
48553;BME280;34335;51.566;6.994;2023-03-15T05:35:21;100885.88;;;0.65;100.00
48553;BME280;34335;51.566;6.994;2023-03-15T05:37:59;100890.31;;;0.69;100.00
48553;BME280;34335;51.566;6.994;2023-03-15T05:40:25;100893.69;;;0.68;100.00
48553;BME280;34335;51.566;6.994;2023-03-15T05:42:53;100895.38;;;0.67;100.00
48553;BME280;34335;51.566;6.994;2023-03-15T05:45:19;100897.38;;;0.74;100.00
48553;BME280;34335;51.566;6.994;2023-03-15T05:47:44;100900.16;;;0.79;100.00
48553;BME280;34335;51.566;6.994;2023-03-15T05:50:10;100906.94;;;0.78;100.00
48553;BME280;34335;51.566;6.994;2023-03-15T05:52:35;100909.50;;;0.78;100.00
48553;BME280;34335;51.566;6.994;2023-03-15T05:55:00;100918.69;;;0.95;100.00
48553;BME280;34335;51.566;6.994;2023-03-15T05:57:25;100924.75;;;0.97;100.00
48553;BME280;34335;51.566;6.994;2023-03-15T05:59:51;100928.03;;;1.14;100.00
48553;BME280;34335;51.566;6.994;2023-03-15T06:02:16;100937.28;;;1.10;100.00
48553;BME280;34335;51.566;6.994;2023-03-15T06:04:41;100941.03;;;1.18;100.00
48553;BME280;34335;51.566;6.994;2023-03-15T06:07:07;100940.94;;;1.17;100.00
48553;BME280;34335;51.566;6.994;2023-03-15T06:09:32;100946.03;;;1.15;100.00
48553;BME280;34335;51.566;6.994;2023-03-15T06:11:57;100951.28;;;1.18;100.00
48553;BME280;34335;51.566;6.994;2023-03-15T06:14:24;100951.94;;;1.14;100.00
48553;BME280;34335;51.566;6.994;2023-03-15T06:16:49;100954.19;;;1.06;100.00
48553;BME280;34335;51.566;6.994;2023-03-15T06:19:15;100957.78;;;1.10;100.00
48553;BME280;34335;51.566;6.994;2023-03-15T06:21:40;100957.69;;;1.08;100.00
48553;BME280;34335;51.566;6.994;2023-03-15T06:24:05;100959.44;;;1.09;100.00
48553;BME280;34335;51.566;6.994;2023-03-15T06:26:31;100957.03;;;1.13;100.00
48553;BME280;34335;51.566;6.994;2023-03-15T06:28:56;100972.63;;;1.19;100.00
48553;BME280;34335;51.566;6.994;2023-03-15T06:31:21;100966.75;;;1.21;100.00
48553;BME280;34335;51.566;6.994;2023-03-15T06:33:47;100973.00;;;1.07;100.00
48553;BME280;34335;51.566;6.994;2023-03-15T06:36:12;100970.41;;;1.05;100.00
48553;BME280;34335;51.566;6.994;2023-03-15T06:38:38;100971.41;;;1.09;100.00
48553;BME280;34335;51.566;6.994;2023-03-15T06:41:03;100969.94;;;1.16;100.00
48553;BME280;34335;51.566;6.994;2023-03-15T06:43:29;100973.59;;;1.21;100.00
48553;BME280;34335;51.566;6.994;2023-03-15T06:45:55;100968.28;;;1.16;100.00
48553;BME280;34335;51.566;6.994;2023-03-15T06:48:24;100978.50;;;1.16;100.00
48553;BME280;34335;51.566;6.994;2023-03-15T06:50:49;100982.88;;;1.19;100.00
48553;BME280;34335;51.566;6.994;2023-03-15T06:53:14;100992.94;;;1.14;100.00
48553;BME280;34335;51.566;6.994;2023-03-15T06:55:40;100994.06;;;1.21;100.00
48553;BME280;34335;51.566;6.994;2023-03-15T06:58:05;101007.66;;;1.18;100.00
48553;BME280;34335;51.566;6.994;2023-03-15T07:00:30;101010.13;;;1.17;100.00
48553;BME280;34335;51.566;6.994;2023-03-15T07:02:56;101008.31;;;1.14;100.00
48553;BME280;34335;51.566;6.994;2023-03-15T07:05:21;101007.25;;;1.09;100.00
48553;BME280;34335;51.566;6.994;2023-03-15T07:07:48;101022.94;;;1.17;100.00
48553;BME280;34335;51.566;6.994;2023-03-15T07:10:13;101028.00;;;1.15;100.00
48553;BME280;34335;51.566;6.994;2023-03-15T07:12:38;101025.78;;;1.23;100.00
48553;BME280;34335;51.566;6.994;2023-03-15T07:15:04;101034.31;;;1.23;100.00
48553;BME280;34335;51.566;6.994;2023-03-15T07:17:29;101043.63;;;1.21;100.00
48553;BME280;34335;51.566;6.994;2023-03-15T07:19:54;101046.19;;;1.21;100.00
48553;BME280;34335;51.566;6.994;2023-03-15T07:22:20;101051.03;;;1.35;100.00
48553;BME280;34335;51.566;6.994;2023-03-15T07:24:47;101038.22;;;1.35;100.00
48553;BME280;34335;51.566;6.994;2023-03-15T07:27:12;101047.03;;;1.42;100.00
48553;BME280;34335;51.566;6.994;2023-03-15T07:29:38;101048.03;;;1.45;100.00
48553;BME280;34335;51.566;6.994;2023-03-15T07:32:03;101045.88;;;1.54;100.00
48553;BME280;34335;51.566;6.994;2023-03-15T07:34:29;101050.00;;;1.51;100.00
48553;BME280;34335;51.566;6.994;2023-03-15T07:36:54;101053.78;;;1.61;100.00
48553;BME280;34335;51.566;6.994;2023-03-15T07:39:20;101061.38;;;1.58;100.00
48553;BME280;34335;51.566;6.994;2023-03-15T07:41:45;101060.91;;;1.47;100.00
48553;BME280;34335;51.566;6.994;2023-03-15T07:44:10;101070.13;;;1.42;100.00
48553;BME280;34335;51.566;6.994;2023-03-15T07:46:36;101074.25;;;1.59;100.00
48553;BME280;34335;51.566;6.994;2023-03-15T07:49:01;101080.53;;;1.66;100.00
48553;BME280;34335;51.566;6.994;2023-03-15T07:51:26;101082.31;;;1.68;100.00
48553;BME280;34335;51.566;6.994;2023-03-15T07:53:52;101098.84;;;1.75;100.00
48553;BME280;34335;51.566;6.994;2023-03-15T07:56:18;101095.84;;;1.85;100.00
48553;BME280;34335;51.566;6.994;2023-03-15T07:58:43;101105.53;;;1.71;100.00
48553;BME280;34335;51.566;6.994;2023-03-15T08:01:08;101115.22;;;1.79;100.00
48553;BME280;34335;51.566;6.994;2023-03-15T08:03:33;101122.59;;;1.71;100.00
48553;BME280;34335;51.566;6.994;2023-03-15T08:06:00;101128.06;;;1.79;100.00
48553;BME280;34335;51.566;6.994;2023-03-15T08:08:25;101124.25;;;1.90;100.00
48553;BME280;34335;51.566;6.994;2023-03-15T08:10:50;101144.19;;;1.76;100.00
48553;BME280;34335;51.566;6.994;2023-03-15T08:13:16;101141.00;;;1.82;100.00
48553;BME280;34335;51.566;6.994;2023-03-15T08:15:44;101156.03;;;1.73;100.00
48553;BME280;34335;51.566;6.994;2023-03-15T08:18:09;101152.81;;;1.78;100.00
48553;BME280;34335;51.566;6.994;2023-03-15T08:20:34;101149.38;;;1.99;100.00
48553;BME280;34335;51.566;6.994;2023-03-15T08:23:00;101150.34;;;2.01;100.00
48553;BME280;34335;51.566;6.994;2023-03-15T08:25:26;101146.53;;;2.12;100.00
48553;BME280;34335;51.566;6.994;2023-03-15T08:27:51;101156.28;;;2.00;100.00
48553;BME280;34335;51.566;6.994;2023-03-15T08:30:18;101158.22;;;2.06;100.00
48553;BME280;34335;51.566;6.994;2023-03-15T08:32:45;101160.53;;;2.21;100.00
48553;BME280;34335;51.566;6.994;2023-03-15T08:35:12;101160.28;;;2.36;100.00
48553;BME280;34335;51.566;6.994;2023-03-15T08:37:38;101165.38;;;2.34;100.00
48553;BME280;34335;51.566;6.994;2023-03-15T08:40:04;101173.88;;;2.33;100.00
48553;BME280;34335;51.566;6.994;2023-03-15T08:42:36;101172.94;;;2.75;100.00
48553;BME280;34335;51.566;6.994;2023-03-15T08:45:03;101173.88;;;2.77;100.00
48553;BME280;34335;51.566;6.994;2023-03-15T08:47:28;101172.94;;;2.98;100.00
48553;BME280;34335;51.566;6.994;2023-03-15T08:49:54;101177.19;;;3.20;100.00
48553;BME280;34335;51.566;6.994;2023-03-15T08:52:19;101181.84;;;3.07;100.00
48553;BME280;34335;51.566;6.994;2023-03-15T08:54:45;101188.97;;;3.15;100.00
48553;BME280;34335;51.566;6.994;2023-03-15T08:57:11;101194.75;;;3.09;100.00
48553;BME280;34335;51.566;6.994;2023-03-15T08:59:37;101191.66;;;3.18;100.00
48553;BME280;34335;51.566;6.994;2023-03-15T09:02:02;101201.13;;;3.19;100.00
48553;BME280;34335;51.566;6.994;2023-03-15T09:04:28;101202.50;;;3.33;100.00
48553;BME280;34335;51.566;6.994;2023-03-15T09:06:53;101197.25;;;3.30;100.00
48553;BME280;34335;51.566;6.994;2023-03-15T09:09:18;101197.81;;;3.46;100.00
48553;BME280;34335;51.566;6.994;2023-03-15T09:11:43;101208.88;;;3.67;100.00
48553;BME280;34335;51.566;6.994;2023-03-15T09:14:09;101199.28;;;3.63;100.00
48553;BME280;34335;51.566;6.994;2023-03-15T09:16:34;101210.34;;;4.11;100.00
48553;BME280;34335;51.566;6.994;2023-03-15T09:18:59;101213.41;;;4.00;100.00
48553;BME280;34335;51.566;6.994;2023-03-15T09:21:25;101213.47;;;4.28;100.00
48553;BME280;34335;51.566;6.994;2023-03-15T09:23:51;101211.00;;;4.05;100.00
48553;BME280;34335;51.566;6.994;2023-03-15T09:26:17;101220.75;;;4.14;100.00
48553;BME280;34335;51.566;6.994;2023-03-15T09:28:42;101230.75;;;3.80;100.00
48553;BME280;34335;51.566;6.994;2023-03-15T09:31:07;101224.84;;;3.58;100.00
48553;BME280;34335;51.566;6.994;2023-03-15T09:33:33;101232.72;;;3.87;100.00
48553;BME280;34335;51.566;6.994;2023-03-15T09:35:58;101235.94;;;3.82;100.00
48553;BME280;34335;51.566;6.994;2023-03-15T09:38:23;101227.97;;;3.74;100.00
48553;BME280;34335;51.566;6.994;2023-03-15T09:40:49;101239.19;;;3.76;100.00
48553;BME280;34335;51.566;6.994;2023-03-15T09:43:49;101238.84;;;3.67;100.00
48553;BME280;34335;51.566;6.994;2023-03-15T09:46:29;101240.72;;;3.95;100.00
48553;BME280;34335;51.566;6.994;2023-03-15T09:49:13;101246.28;;;4.33;100.00
48553;BME280;34335;51.566;6.994;2023-03-15T09:56:55;101233.41;;;4.88;100.00
48553;BME280;34335;51.566;6.994;2023-03-15T09:59:32;101232.16;;;5.03;100.00
48553;BME280;34335;51.566;6.994;2023-03-15T10:02:01;101227.28;;;4.57;100.00
48553;BME280;34335;51.566;6.994;2023-03-15T10:04:32;101225.34;;;5.35;100.00
48553;BME280;34335;51.566;6.994;2023-03-15T10:07:02;101234.25;;;5.77;100.00
48553;BME280;34335;51.566;6.994;2023-03-15T10:09:29;101232.25;;;5.67;100.00
48553;BME280;34335;51.566;6.994;2023-03-15T10:12:11;101227.25;;;5.73;100.00
48553;BME280;34335;51.566;6.994;2023-03-15T10:17:43;101230.94;;;5.20;100.00
48553;BME280;34335;51.566;6.994;2023-03-15T10:20:11;101231.00;;;5.84;100.00
48553;BME280;34335;51.566;6.994;2023-03-15T10:22:48;101226.19;;;5.97;100.00
48553;BME280;34335;51.566;6.994;2023-03-15T10:25:19;101230.78;;;6.07;100.00
48553;BME280;34335;51.566;6.994;2023-03-15T10:27:57;101243.25;;;5.59;100.00
48553;BME280;34335;51.566;6.994;2023-03-15T10:30:27;101235.47;;;5.90;100.00
48553;BME280;34335;51.566;6.994;2023-03-15T10:33:05;101236.38;;;5.60;100.00
48553;BME280;34335;51.566;6.994;2023-03-15T10:35:34;101239.50;;;5.50;100.00
48553;BME280;34335;51.566;6.994;2023-03-15T10:37:59;101242.31;;;5.27;100.00
48553;BME280;34335;51.566;6.994;2023-03-15T10:40:46;101243.25;;;5.29;100.00
48553;BME280;34335;51.566;6.994;2023-03-15T10:48:27;101244.22;;;6.64;100.00
48553;BME280;34335;51.566;6.994;2023-03-15T10:50:54;101249.84;;;6.82;100.00
48553;BME280;34335;51.566;6.994;2023-03-15T10:53:20;101247.09;;;7.14;100.00
48553;BME280;34335;51.566;6.994;2023-03-15T10:55:46;101243.47;;;7.06;100.00
48553;BME280;34335;51.566;6.994;2023-03-15T10:58:28;101238.75;;;6.86;100.00
48553;BME280;34335;51.566;6.994;2023-03-15T11:01:02;101234.72;;;7.01;100.00
48553;BME280;34335;51.566;6.994;2023-03-15T11:03:31;101250.16;;;7.80;100.00
48553;BME280;34335;51.566;6.994;2023-03-15T11:05:57;101253.59;;;6.59;88.49
48553;BME280;34335;51.566;6.994;2023-03-15T11:08:34;101245.88;;;7.38;100.00
48553;BME280;34335;51.566;6.994;2023-03-15T11:11:01;101240.09;;;7.10;98.45
48553;BME280;34335;51.566;6.994;2023-03-15T11:13:31;101246.50;;;6.88;94.37
48553;BME280;34335;51.566;6.994;2023-03-15T11:16:03;101257.63;;;6.84;86.56
48553;BME280;34335;51.566;6.994;2023-03-15T11:19:01;101256.66;;;7.60;100.00
48553;BME280;34335;51.566;6.994;2023-03-15T11:21:32;101255.88;;;8.10;100.00
48553;BME280;34335;51.566;6.994;2023-03-15T11:24:00;101264.50;;;8.09;88.60
48553;BME280;34335;51.566;6.994;2023-03-15T11:26:30;101269.53;;;7.57;88.22
48553;BME280;34335;51.566;6.994;2023-03-15T11:29:00;101277.53;;;8.14;82.27
48553;BME280;34335;51.566;6.994;2023-03-15T11:31:27;101276.50;;;8.02;83.63
48553;BME280;34335;51.566;6.994;2023-03-15T11:34:12;101264.94;;;8.84;100.00
48553;BME280;34335;51.566;6.994;2023-03-15T11:36:43;101287.13;;;8.18;80.25
48553;BME280;34335;51.566;6.994;2023-03-15T11:39:14;101273.06;;;9.09;88.53
48553;BME280;34335;51.566;6.994;2023-03-15T11:41:50;101271.91;;;9.53;100.00
48553;BME280;34335;51.566;6.994;2023-03-15T11:44:27;101276.81;;;9.30;79.17
48553;BME280;34335;51.566;6.994;2023-03-15T11:47:02;101276.94;;;9.39;78.13
48553;BME280;34335;51.566;6.994;2023-03-15T11:49:36;101275.31;;;8.86;69.37
48553;BME280;34335;51.566;6.994;2023-03-15T11:52:05;101271.44;;;9.16;70.67
48553;BME280;34335;51.566;6.994;2023-03-15T11:54:31;101273.44;;;9.39;73.25
48553;BME280;34335;51.566;6.994;2023-03-15T11:57:01;101273.72;;;9.62;70.61
48553;BME280;34335;51.566;6.994;2023-03-15T11:59:29;101274.34;;;9.38;70.00
48553;BME280;34335;51.566;6.994;2023-03-15T12:01:59;101268.47;;;9.56;88.04
48553;BME280;34335;51.566;6.994;2023-03-15T12:06:57;101268.38;;;9.48;75.53
48553;BME280;34335;51.566;6.994;2023-03-15T12:11:58;101268.97;;;9.28;62.11
48553;BME280;34335;51.566;6.994;2023-03-15T12:14:43;101273.28;;;9.97;62.53
48553;BME280;34335;51.566;6.994;2023-03-15T12:22:24;101279.31;;;9.94;74.00
48553;BME280;34335;51.566;6.994;2023-03-15T12:24:57;101271.44;;;9.85;64.94
48553;BME280;34335;51.566;6.994;2023-03-15T12:27:28;101287.34;;;8.30;62.59
48553;BME280;34335;51.566;6.994;2023-03-15T12:30:00;101286.03;;;8.06;61.93
48553;BME280;34335;51.566;6.994;2023-03-15T12:32:28;101281.22;;;8.76;63.50
48553;BME280;34335;51.566;6.994;2023-03-15T12:34:57;101267.13;;;9.89;77.16
48553;BME280;34335;51.566;6.994;2023-03-15T12:37:44;101257.75;;;11.10;61.25
48553;BME280;34335;51.566;6.994;2023-03-15T12:53:26;101265.84;;;9.52;69.62
48553;BME280;34335;51.566;6.994;2023-03-15T12:55:54;101271.63;;;8.71;63.13
48553;BME280;34335;51.566;6.994;2023-03-15T12:58:25;101278.50;;;8.19;65.50
48553;BME280;34335;51.566;6.994;2023-03-15T13:00:52;101274.50;;;7.90;59.64
48553;BME280;34335;51.566;6.994;2023-03-15T13:03:21;101265.16;;;9.01;60.95
48553;BME280;34335;51.566;6.994;2023-03-15T13:06:02;101265.72;;;8.79;57.91
48553;BME280;34335;51.566;6.994;2023-03-15T13:08:39;101269.50;;;10.52;72.67
48553;BME280;34335;51.566;6.994;2023-03-15T13:11:16;101277.38;;;9.78;62.58
48553;BME280;34335;51.566;6.994;2023-03-15T13:16:40;101263.84;;;11.13;72.03
48553;BME280;34335;51.566;6.994;2023-03-15T13:19:35;101264.78;;;10.12;58.74
48553;BME280;34335;51.566;6.994;2023-03-15T13:22:23;101280.03;;;8.56;54.21
48553;BME280;34335;51.566;6.994;2023-03-15T13:25:06;101272.97;;;9.71;57.35
48553;BME280;34335;51.566;6.994;2023-03-15T13:30:24;101263.16;;;11.51;53.31
48553;BME280;34335;51.566;6.994;2023-03-15T13:33:25;101266.69;;;11.63;52.59
48553;BME280;34335;51.566;6.994;2023-03-15T13:36:03;101276.06;;;11.20;52.18
48553;BME280;34335;51.566;6.994;2023-03-15T13:38:41;101282.13;;;10.13;45.29